sensor_id;sensor_type;location;lat;lon;timestamp;temperature;humidity
80134;SHT30;69443;51.442;10.564;2023-05-29T00:01:23;18.58;41.77
80134;SHT30;69443;51.442;10.564;2023-05-29T00:03:49;18.53;41.84
80134;SHT30;69443;51.442;10.564;2023-05-29T00:06:15;18.48;41.84
80134;SHT30;69443;51.442;10.564;2023-05-29T00:08:41;18.47;41.87
80134;SHT30;69443;51.442;10.564;2023-05-29T00:11:06;18.42;41.87
80134;SHT30;69443;51.442;10.564;2023-05-29T00:13:32;18.37;42.03
80134;SHT30;69443;51.442;10.564;2023-05-29T00:15:57;18.35;42.19
80134;SHT30;69443;51.442;10.564;2023-05-29T00:18:24;18.28;42.30
80134;SHT30;69443;51.442;10.564;2023-05-29T00:20:50;18.27;42.23
80134;SHT30;69443;51.442;10.564;2023-05-29T00:23:18;18.23;42.31
80134;SHT30;69443;51.442;10.564;2023-05-29T00:25:43;18.21;42.44
80134;SHT30;69443;51.442;10.564;2023-05-29T00:28:09;18.14;42.53
80134;SHT30;69443;51.442;10.564;2023-05-29T00:30:35;18.11;42.62
80134;SHT30;69443;51.442;10.564;2023-05-29T00:33:00;18.08;42.68
80134;SHT30;69443;51.442;10.564;2023-05-29T00:35:25;18.06;42.59
80134;SHT30;69443;51.442;10.564;2023-05-29T00:37:52;18.00;42.66
80134;SHT30;69443;51.442;10.564;2023-05-29T00:40:17;17.91;42.74
80134;SHT30;69443;51.442;10.564;2023-05-29T00:42:43;17.91;42.83
80134;SHT30;69443;51.442;10.564;2023-05-29T00:45:08;17.87;42.69
80134;SHT30;69443;51.442;10.564;2023-05-29T00:47:34;17.83;42.90
80134;SHT30;69443;51.442;10.564;2023-05-29T00:50:01;17.82;43.06
80134;SHT30;69443;51.442;10.564;2023-05-29T00:52:26;17.76;42.93
80134;SHT30;69443;51.442;10.564;2023-05-29T00:54:52;17.72;42.99
80134;SHT30;69443;51.442;10.564;2023-05-29T00:57:18;17.68;43.16
80134;SHT30;69443;51.442;10.564;2023-05-29T00:59:45;17.66;43.25
80134;SHT30;69443;51.442;10.564;2023-05-29T01:02:12;17.62;43.22
80134;SHT30;69443;51.442;10.564;2023-05-29T01:04:39;17.56;43.32
80134;SHT30;69443;51.442;10.564;2023-05-29T01:07:04;17.51;43.37
80134;SHT30;69443;51.442;10.564;2023-05-29T01:09:30;17.49;43.33
80134;SHT30;69443;51.442;10.564;2023-05-29T01:28:19;17.17;43.47
80134;SHT30;69443;51.442;10.564;2023-05-29T01:30:47;17.13;43.57
80134;SHT30;69443;51.442;10.564;2023-05-29T01:33:12;17.07;43.80
80134;SHT30;69443;51.442;10.564;2023-05-29T01:35:38;17.04;43.93
80134;SHT30;69443;51.442;10.564;2023-05-29T01:38:03;16.96;44.12
80134;SHT30;69443;51.442;10.564;2023-05-29T01:40:28;16.94;44.25
80134;SHT30;69443;51.442;10.564;2023-05-29T01:42:54;16.94;44.28
80134;SHT30;69443;51.442;10.564;2023-05-29T01:45:20;16.86;44.32
80134;SHT30;69443;51.442;10.564;2023-05-29T01:47:45;16.80;44.42
80134;SHT30;69443;51.442;10.564;2023-05-29T01:50:13;16.75;44.50
80134;SHT30;69443;51.442;10.564;2023-05-29T01:52:40;16.68;44.52
80134;SHT30;69443;51.442;10.564;2023-05-29T01:55:06;16.68;44.70
80134;SHT30;69443;51.442;10.564;2023-05-29T01:57:32;16.69;44.85
80134;SHT30;69443;51.442;10.564;2023-05-29T01:59:57;16.64;44.84
80134;SHT30;69443;51.442;10.564;2023-05-29T02:02:23;16.62;45.04
80134;SHT30;69443;51.442;10.564;2023-05-29T02:04:48;16.58;45.03
80134;SHT30;69443;51.442;10.564;2023-05-29T02:07:13;16.54;45.08
80134;SHT30;69443;51.442;10.564;2023-05-29T02:09:40;16.54;44.95
80134;SHT30;69443;51.442;10.564;2023-05-29T02:12:06;16.48;45.08
80134;SHT30;69443;51.442;10.564;2023-05-29T02:14:32;16.44;45.01
80134;SHT30;69443;51.442;10.564;2023-05-29T02:16:57;16.42;45.14
80134;SHT30;69443;51.442;10.564;2023-05-29T02:19:23;16.41;45.06
80134;SHT30;69443;51.442;10.564;2023-05-29T02:21:50;16.35;45.29
80134;SHT30;69443;51.442;10.564;2023-05-29T02:24:15;16.34;45.38
80134;SHT30;69443;51.442;10.564;2023-05-29T02:26:41;16.31;45.47
80134;SHT30;69443;51.442;10.564;2023-05-29T02:29:07;16.28;45.45
80134;SHT30;69443;51.442;10.564;2023-05-29T02:31:33;16.22;45.41
80134;SHT30;69443;51.442;10.564;2023-05-29T02:33:58;16.18;45.36
80134;SHT30;69443;51.442;10.564;2023-05-29T02:36:24;16.14;45.49
80134;SHT30;69443;51.442;10.564;2023-05-29T02:38:49;16.13;45.54
80134;SHT30;69443;51.442;10.564;2023-05-29T02:41:15;16.11;45.56
80134;SHT30;69443;51.442;10.564;2023-05-29T02:43:40;16.06;45.72
80134;SHT30;69443;51.442;10.564;2023-05-29T02:46:06;16.02;45.75
80134;SHT30;69443;51.442;10.564;2023-05-29T02:48:31;16.02;45.60
80134;SHT30;69443;51.442;10.564;2023-05-29T02:50:56;15.97;45.74
80134;SHT30;69443;51.442;10.564;2023-05-29T02:53:22;15.92;45.74
80134;SHT30;69443;51.442;10.564;2023-05-29T02:55:48;15.86;45.84
80134;SHT30;69443;51.442;10.564;2023-05-29T02:58:14;15.79;45.83
80134;SHT30;69443;51.442;10.564;2023-05-29T03:00:42;15.76;45.95
80134;SHT30;69443;51.442;10.564;2023-05-29T03:03:07;15.69;45.88
80134;SHT30;69443;51.442;10.564;2023-05-29T03:05:32;15.66;45.88
80134;SHT30;69443;51.442;10.564;2023-05-29T03:07:58;15.63;46.05
80134;SHT30;69443;51.442;10.564;2023-05-29T03:10:23;15.62;46.01
80134;SHT30;69443;51.442;10.564;2023-05-29T03:12:48;15.63;46.11
80134;SHT30;69443;51.442;10.564;2023-05-29T03:15:14;15.63;46.24
80134;SHT30;69443;51.442;10.564;2023-05-29T03:17:39;15.58;46.17
80134;SHT30;69443;51.442;10.564;2023-05-29T03:20:05;15.55;46.22
80134;SHT30;69443;51.442;10.564;2023-05-29T03:22:32;15.54;46.29
80134;SHT30;69443;51.442;10.564;2023-05-29T03:24:57;15.51;46.42
80134;SHT30;69443;51.442;10.564;2023-05-29T03:27:23;15.50;46.54
80134;SHT30;69443;51.442;10.564;2023-05-29T03:29:48;15.45;46.53
80134;SHT30;69443;51.442;10.564;2023-05-29T03:32:13;15.44;46.72
80134;SHT30;69443;51.442;10.564;2023-05-29T03:34:39;15.42;46.77
80134;SHT30;69443;51.442;10.564;2023-05-29T03:37:05;15.41;46.86
80134;SHT30;69443;51.442;10.564;2023-05-29T03:39:30;15.38;46.75
80134;SHT30;69443;51.442;10.564;2023-05-29T03:41:56;15.37;46.77
80134;SHT30;69443;51.442;10.564;2023-05-29T03:44:21;15.37;46.81
80134;SHT30;69443;51.442;10.564;2023-05-29T03:46:46;15.33;46.75
80134;SHT30;69443;51.442;10.564;2023-05-29T03:49:12;15.31;46.61
80134;SHT30;69443;51.442;10.564;2023-05-29T03:51:37;15.28;46.70
80134;SHT30;69443;51.442;10.564;2023-05-29T03:54:03;15.30;46.80
80134;SHT30;69443;51.442;10.564;2023-05-29T03:56:28;15.28;46.74
80134;SHT30;69443;51.442;10.564;2023-05-29T03:58:54;15.31;46.79
80134;SHT30;69443;51.442;10.564;2023-05-29T04:01:20;15.28;46.89
80134;SHT30;69443;51.442;10.564;2023-05-29T04:03:45;15.30;46.96
80134;SHT30;69443;51.442;10.564;2023-05-29T04:06:11;15.31;47.08
80134;SHT30;69443;51.442;10.564;2023-05-29T04:08:36;15.34;47.24
80134;SHT30;69443;51.442;10.564;2023-05-29T04:11:02;15.33;47.22
80134;SHT30;69443;51.442;10.564;2023-05-29T04:13:29;15.38;47.33
80134;SHT30;69443;51.442;10.564;2023-05-29T04:15:54;15.42;47.33
80134;SHT30;69443;51.442;10.564;2023-05-29T04:18:20;15.44;47.36
80134;SHT30;69443;51.442;10.564;2023-05-29T04:20:46;15.51;47.39
80134;SHT30;69443;51.442;10.564;2023-05-29T04:23:13;15.58;47.47
80134;SHT30;69443;51.442;10.564;2023-05-29T04:25:38;15.62;47.51
80134;SHT30;69443;51.442;10.564;2023-05-29T04:28:04;15.66;47.33
80134;SHT30;69443;51.442;10.564;2023-05-29T04:30:30;15.70;47.23
80134;SHT30;69443;51.442;10.564;2023-05-29T04:32:57;15.78;47.09
80134;SHT30;69443;51.442;10.564;2023-05-29T04:35:23;15.79;47.20
80134;SHT30;69443;51.442;10.564;2023-05-29T04:37:48;15.87;47.09
80134;SHT30;69443;51.442;10.564;2023-05-29T04:40:13;15.89;46.91
80134;SHT30;69443;51.442;10.564;2023-05-29T04:42:42;15.96;46.86
80134;SHT30;69443;51.442;10.564;2023-05-29T04:45:10;16.04;46.57
80134;SHT30;69443;51.442;10.564;2023-05-29T04:47:36;16.09;46.38
80134;SHT30;69443;51.442;10.564;2023-05-29T04:50:15;16.17;46.31
80134;SHT30;69443;51.442;10.564;2023-05-29T04:52:41;16.22;46.21
80134;SHT30;69443;51.442;10.564;2023-05-29T04:55:08;16.32;46.14
80134;SHT30;69443;51.442;10.564;2023-05-29T04:57:35;16.41;46.06
80134;SHT30;69443;51.442;10.564;2023-05-29T05:00:01;16.51;46.03
80134;SHT30;69443;51.442;10.564;2023-05-29T05:02:30;16.54;45.98
80134;SHT30;69443;51.442;10.564;2023-05-29T05:04:55;16.66;45.85
80134;SHT30;69443;51.442;10.564;2023-05-29T05:07:21;16.75;45.93
80134;SHT30;69443;51.442;10.564;2023-05-29T05:09:47;16.84;45.75
80134;SHT30;69443;51.442;10.564;2023-05-29T05:12:12;16.94;45.61
80134;SHT30;69443;51.442;10.564;2023-05-29T05:14:38;17.02;45.50
80134;SHT30;69443;51.442;10.564;2023-05-29T05:17:03;17.11;45.44
80134;SHT30;69443;51.442;10.564;2023-05-29T05:19:29;17.21;45.31
80134;SHT30;69443;51.442;10.564;2023-05-29T05:21:54;17.32;45.24
80134;SHT30;69443;51.442;10.564;2023-05-29T05:24:20;17.42;45.07
80134;SHT30;69443;51.442;10.564;2023-05-29T05:26:45;17.52;44.98
80134;SHT30;69443;51.442;10.564;2023-05-29T05:29:10;17.62;44.88
80134;SHT30;69443;51.442;10.564;2023-05-29T05:31:36;17.72;44.79
80134;SHT30;69443;51.442;10.564;2023-05-29T05:34:01;17.80;44.70
80134;SHT30;69443;51.442;10.564;2023-05-29T05:36:27;17.93;44.63
80134;SHT30;69443;51.442;10.564;2023-05-29T05:38:52;17.98;44.54
80134;SHT30;69443;51.442;10.564;2023-05-29T05:41:17;18.11;44.46
80134;SHT30;69443;51.442;10.564;2023-05-29T05:43:43;18.23;44.31
80134;SHT30;69443;51.442;10.564;2023-05-29T05:46:08;18.34;44.40
80134;SHT30;69443;51.442;10.564;2023-05-29T05:48:34;18.41;44.32
80134;SHT30;69443;51.442;10.564;2023-05-29T05:50:59;18.51;44.21
80134;SHT30;69443;51.442;10.564;2023-05-29T05:53:25;18.60;44.20
80134;SHT30;69443;51.442;10.564;2023-05-29T05:55:50;18.72;44.04
80134;SHT30;69443;51.442;10.564;2023-05-29T05:58:16;18.82;44.08
80134;SHT30;69443;51.442;10.564;2023-05-29T06:00:41;18.93;44.04
80134;SHT30;69443;51.442;10.564;2023-05-29T06:03:07;19.00;43.91
80134;SHT30;69443;51.442;10.564;2023-05-29T06:05:33;19.13;43.81
80134;SHT30;69443;51.442;10.564;2023-05-29T06:08:01;19.24;43.68
80134;SHT30;69443;51.442;10.564;2023-05-29T06:10:27;19.34;43.79
80134;SHT30;69443;51.442;10.564;2023-05-29T06:12:52;19.42;43.70
80134;SHT30;69443;51.442;10.564;2023-05-29T06:15:18;19.51;43.54
80134;SHT30;69443;51.442;10.564;2023-05-29T06:17:44;19.62;43.43
80134;SHT30;69443;51.442;10.564;2023-05-29T06:20:10;19.75;43.45
80134;SHT30;69443;51.442;10.564;2023-05-29T06:22:37;19.83;43.30
80134;SHT30;69443;51.442;10.564;2023-05-29T06:25:02;19.93;43.18
80134;SHT30;69443;51.442;10.564;2023-05-29T06:27:28;20.01;43.19
80134;SHT30;69443;51.442;10.564;2023-05-29T06:29:53;20.10;43.10
80134;SHT30;69443;51.442;10.564;2023-05-29T06:32:18;20.20;42.90
80134;SHT30;69443;51.442;10.564;2023-05-29T06:34:44;20.28;42.96
80134;SHT30;69443;51.442;10.564;2023-05-29T06:37:09;20.38;42.91
80134;SHT30;69443;51.442;10.564;2023-05-29T06:39:35;20.49;42.86
80134;SHT30;69443;51.442;10.564;2023-05-29T06:42:00;20.57;42.83
80134;SHT30;69443;51.442;10.564;2023-05-29T06:44:26;20.66;42.72
80134;SHT30;69443;51.442;10.564;2023-05-29T06:46:52;20.77;42.72
80134;SHT30;69443;51.442;10.564;2023-05-29T06:49:17;20.86;42.67
80134;SHT30;69443;51.442;10.564;2023-05-29T06:51:44;20.96;42.63
80134;SHT30;69443;51.442;10.564;2023-05-29T06:54:09;21.07;42.41
80134;SHT30;69443;51.442;10.564;2023-05-29T06:56:35;21.17;42.29
80134;SHT30;69443;51.442;10.564;2023-05-29T06:59:00;21.25;42.23
80134;SHT30;69443;51.442;10.564;2023-05-29T07:01:56;21.39;42.44
80134;SHT30;69443;51.442;10.564;2023-05-29T07:04:22;21.49;41.97
80134;SHT30;69443;51.442;10.564;2023-05-29T07:06:47;21.59;42.01
80134;SHT30;69443;51.442;10.564;2023-05-29T07:09:13;21.70;41.87
80134;SHT30;69443;51.442;10.564;2023-05-29T07:11:38;21.79;41.78
80134;SHT30;69443;51.442;10.564;2023-05-29T07:14:04;21.87;41.75
80134;SHT30;69443;51.442;10.564;2023-05-29T07:16:29;21.96;41.66
80134;SHT30;69443;51.442;10.564;2023-05-29T07:18:55;22.08;41.53
80134;SHT30;69443;51.442;10.564;2023-05-29T07:21:20;22.17;41.46
80134;SHT30;69443;51.442;10.564;2023-05-29T07:23:45;22.24;41.54
80134;SHT30;69443;51.442;10.564;2023-05-29T07:26:11;22.35;41.38
80134;SHT30;69443;51.442;10.564;2023-05-29T07:28:36;22.42;41.31
80134;SHT30;69443;51.442;10.564;2023-05-29T07:31:01;22.55;41.15
80134;SHT30;69443;51.442;10.564;2023-05-29T07:33:27;22.66;41.11
80134;SHT30;69443;51.442;10.564;2023-05-29T07:35:52;22.79;40.99
80134;SHT30;69443;51.442;10.564;2023-05-29T07:38:18;22.91;40.90
80134;SHT30;69443;51.442;10.564;2023-05-29T07:40:43;23.04;40.73
80134;SHT30;69443;51.442;10.564;2023-05-29T07:43:09;23.15;40.74
80134;SHT30;69443;51.442;10.564;2023-05-29T07:45:34;23.24;40.73
80134;SHT30;69443;51.442;10.564;2023-05-29T07:48:00;23.35;40.50
80134;SHT30;69443;51.442;10.564;2023-05-29T07:50:25;23.52;40.45
80134;SHT30;69443;51.442;10.564;2023-05-29T07:52:51;23.61;40.36
80134;SHT30;69443;51.442;10.564;2023-05-29T07:55:16;23.74;40.26
80134;SHT30;69443;51.442;10.564;2023-05-29T07:57:41;23.89;40.09
80134;SHT30;69443;51.442;10.564;2023-05-29T08:00:07;24.01;39.96
80134;SHT30;69443;51.442;10.564;2023-05-29T08:02:36;24.13;39.94
80134;SHT30;69443;51.442;10.564;2023-05-29T08:05:03;24.25;39.82
80134;SHT30;69443;51.442;10.564;2023-05-29T08:07:28;24.36;39.66
80134;SHT30;69443;51.442;10.564;2023-05-29T08:09:54;24.47;39.59
80134;SHT30;69443;51.442;10.564;2023-05-29T08:12:19;24.56;39.54
80134;SHT30;69443;51.442;10.564;2023-05-29T08:14:45;24.76;39.25
80134;SHT30;69443;51.442;10.564;2023-05-29T08:17:11;24.90;39.10
80134;SHT30;69443;51.442;10.564;2023-05-29T08:19:36;25.01;39.14
80134;SHT30;69443;51.442;10.564;2023-05-29T08:22:01;25.11;39.12
80134;SHT30;69443;51.442;10.564;2023-05-29T08:24:27;25.22;38.97
80134;SHT30;69443;51.442;10.564;2023-05-29T08:26:53;25.37;38.85
80134;SHT30;69443;51.442;10.564;2023-05-29T08:29:18;25.50;39.00
80134;SHT30;69443;51.442;10.564;2023-05-29T08:31:44;25.65;38.55
80134;SHT30;69443;51.442;10.564;2023-05-29T08:34:09;25.74;38.48
80134;SHT30;69443;51.442;10.564;2023-05-29T08:36:35;25.89;38.39
80134;SHT30;69443;51.442;10.564;2023-05-29T08:39:00;26.01;38.39
80134;SHT30;69443;51.442;10.564;2023-05-29T08:44:04;26.28;37.99
80134;SHT30;69443;51.442;10.564;2023-05-29T08:46:32;26.41;38.02
80134;SHT30;69443;51.442;10.564;2023-05-29T08:48:59;26.52;37.71
80134;SHT30;69443;51.442;10.564;2023-05-29T08:51:32;26.62;37.69
80134;SHT30;69443;51.442;10.564;2023-05-29T08:53:59;26.72;37.91
80134;SHT30;69443;51.442;10.564;2023-05-29T08:56:24;26.80;37.85
80134;SHT30;69443;51.442;10.564;2023-05-29T08:58:51;26.87;37.79
80134;SHT30;69443;51.442;10.564;2023-05-29T09:01:17;26.97;37.41
80134;SHT30;69443;51.442;10.564;2023-05-29T09:03:45;27.08;37.44
80134;SHT30;69443;51.442;10.564;2023-05-29T09:06:12;27.18;37.44
80134;SHT30;69443;51.442;10.564;2023-05-29T09:08:37;27.31;36.92
80134;SHT30;69443;51.442;10.564;2023-05-29T09:11:03;27.39;37.01
80134;SHT30;69443;51.442;10.564;2023-05-29T09:13:29;27.52;36.11
80134;SHT30;69443;51.442;10.564;2023-05-29T09:15:58;27.63;36.56
80134;SHT30;69443;51.442;10.564;2023-05-29T09:18:30;27.76;36.65
80134;SHT30;69443;51.442;10.564;2023-05-29T09:20:57;27.86;36.67
80134;SHT30;69443;51.442;10.564;2023-05-29T09:23:22;27.96;36.65
80134;SHT30;69443;51.442;10.564;2023-05-29T09:25:52;28.08;36.18
80134;SHT30;69443;51.442;10.564;2023-05-29T09:28:18;28.18;36.56
80134;SHT30;69443;51.442;10.564;2023-05-29T09:30:45;28.27;36.27
80134;SHT30;69443;51.442;10.564;2023-05-29T09:33:12;28.35;36.14
80134;SHT30;69443;51.442;10.564;2023-05-29T09:35:44;28.41;36.19
80134;SHT30;69443;51.442;10.564;2023-05-29T09:38:12;28.49;35.98
80134;SHT30;69443;51.442;10.564;2023-05-29T09:40:39;28.57;36.09
80134;SHT30;69443;51.442;10.564;2023-05-29T09:45:47;28.70;35.45
80134;SHT30;69443;51.442;10.564;2023-05-29T09:48:16;28.72;35.93
80134;SHT30;69443;51.442;10.564;2023-05-29T09:50:45;28.76;35.74
80134;SHT30;69443;51.442;10.564;2023-05-29T09:53:23;28.84;35.39
80134;SHT30;69443;51.442;10.564;2023-05-29T09:55:53;28.91;36.03
80134;SHT30;69443;51.442;10.564;2023-05-29T09:58:23;28.97;33.62
80134;SHT30;69443;51.442;10.564;2023-05-29T10:00:50;29.08;35.52
80134;SHT30;69443;51.442;10.564;2023-05-29T10:03:19;29.19;35.60
80134;SHT30;69443;51.442;10.564;2023-05-29T10:05:51;29.26;35.38
80134;SHT30;69443;51.442;10.564;2023-05-29T10:08:18;29.36;35.54
80134;SHT30;69443;51.442;10.564;2023-05-29T10:10:46;29.46;35.34
80134;SHT30;69443;51.442;10.564;2023-05-29T10:13:14;29.53;35.45
80134;SHT30;69443;51.442;10.564;2023-05-29T10:15:42;29.63;35.66
80134;SHT30;69443;51.442;10.564;2023-05-29T10:21:12;29.83;35.51
80134;SHT30;69443;51.442;10.564;2023-05-29T10:23:38;29.88;35.56
80134;SHT30;69443;51.442;10.564;2023-05-29T10:26:24;29.96;33.72
80134;SHT30;69443;51.442;10.564;2023-05-29T10:29:15;29.96;33.45
80134;SHT30;69443;51.442;10.564;2023-05-29T10:31:52;29.98;35.28
80134;SHT30;69443;51.442;10.564;2023-05-29T10:37:09;29.97;35.27
80134;SHT30;69443;51.442;10.564;2023-05-29T10:39:39;30.03;35.18
80134;SHT30;69443;51.442;10.564;2023-05-29T10:45:05;30.18;34.77
80134;SHT30;69443;51.442;10.564;2023-05-29T10:47:30;30.24;34.59
80134;SHT30;69443;51.442;10.564;2023-05-29T10:49:59;30.25;35.02
80134;SHT30;69443;51.442;10.564;2023-05-29T10:52:25;30.32;35.09
80134;SHT30;69443;51.442;10.564;2023-05-29T10:54:53;30.41;35.10
80134;SHT30;69443;51.442;10.564;2023-05-29T10:57:20;30.41;29.96
80134;SHT30;69443;51.442;10.564;2023-05-29T10:59:46;30.48;32.64
80134;SHT30;69443;51.442;10.564;2023-05-29T11:02:17;30.51;34.01
80134;SHT30;69443;51.442;10.564;2023-05-29T11:04:42;30.51;34.75
80134;SHT30;69443;51.442;10.564;2023-05-29T11:10:12;30.53;34.53
80134;SHT30;69443;51.442;10.564;2023-05-29T11:12:57;30.51;33.39
80134;SHT30;69443;51.442;10.564;2023-05-29T11:15:24;30.49;34.72
80134;SHT30;69443;51.442;10.564;2023-05-29T11:17:49;30.45;34.15
80134;SHT30;69443;51.442;10.564;2023-05-29T11:20:28;30.46;34.55
80134;SHT30;69443;51.442;10.564;2023-05-29T11:25:25;30.51;34.47
80134;SHT30;69443;51.442;10.564;2023-05-29T11:27:51;30.55;34.37
80134;SHT30;69443;51.442;10.564;2023-05-29T11:30:20;30.55;34.22
80134;SHT30;69443;51.442;10.564;2023-05-29T11:32:46;30.53;34.44
80134;SHT30;69443;51.442;10.564;2023-05-29T11:35:12;30.56;34.17
80134;SHT30;69443;51.442;10.564;2023-05-29T11:37:39;30.56;31.53
80134;SHT30;69443;51.442;10.564;2023-05-29T11:40:08;30.59;32.52
80134;SHT30;69443;51.442;10.564;2023-05-29T11:42:45;30.65;31.49
80134;SHT30;69443;51.442;10.564;2023-05-29T11:45:15;30.77;32.52
80134;SHT30;69443;51.442;10.564;2023-05-29T11:48:01;30.88;32.36
80134;SHT30;69443;51.442;10.564;2023-05-29T11:50:30;30.94;30.00
80134;SHT30;69443;51.442;10.564;2023-05-29T11:52:57;31.04;31.66
80134;SHT30;69443;51.442;10.564;2023-05-29T11:55:24;31.14;31.49
80134;SHT30;69443;51.442;10.564;2023-05-29T11:57:51;31.24;29.67
80134;SHT30;69443;51.442;10.564;2023-05-29T12:00:18;31.28;29.15
80134;SHT30;69443;51.442;10.564;2023-05-29T12:02:44;31.36;30.71
80134;SHT30;69443;51.442;10.564;2023-05-29T12:05:13;31.39;30.07
80134;SHT30;69443;51.442;10.564;2023-05-29T12:07:51;31.45;29.36
80134;SHT30;69443;51.442;10.564;2023-05-29T12:10:18;31.52;30.01
80134;SHT30;69443;51.442;10.564;2023-05-29T12:15:13;31.62;29.55
80134;SHT30;69443;51.442;10.564;2023-05-29T12:17:40;31.70;30.16
80134;SHT30;69443;51.442;10.564;2023-05-29T12:20:06;31.73;29.61
80134;SHT30;69443;51.442;10.564;2023-05-29T12:22:35;31.81;30.36
80134;SHT30;69443;51.442;10.564;2023-05-29T12:25:06;31.89;30.72
80134;SHT30;69443;51.442;10.564;2023-05-29T12:27:32;31.94;31.06
80134;SHT30;69443;51.442;10.564;2023-05-29T12:30:03;31.94;30.79
80134;SHT30;69443;51.442;10.564;2023-05-29T12:32:38;31.91;29.64
80134;SHT30;69443;51.442;10.564;2023-05-29T12:40:24;31.87;30.70
80134;SHT30;69443;51.442;10.564;2023-05-29T12:42:58;31.81;30.39
80134;SHT30;69443;51.442;10.564;2023-05-29T12:45:25;31.74;30.58
80134;SHT30;69443;51.442;10.564;2023-05-29T12:47:55;31.65;30.28
80134;SHT30;69443;51.442;10.564;2023-05-29T12:50:25;31.63;30.52
80134;SHT30;69443;51.442;10.564;2023-05-29T12:55:20;31.46;30.29
80134;SHT30;69443;51.442;10.564;2023-05-29T12:57:45;31.42;30.62
80134;SHT30;69443;51.442;10.564;2023-05-29T13:00:12;31.38;30.78
80134;SHT30;69443;51.442;10.564;2023-05-29T13:02:38;31.28;30.85
80134;SHT30;69443;51.442;10.564;2023-05-29T13:05:03;31.25;30.82
80134;SHT30;69443;51.442;10.564;2023-05-29T13:07:30;31.24;30.77
80134;SHT30;69443;51.442;10.564;2023-05-29T13:09:56;31.24;30.64
80134;SHT30;69443;51.442;10.564;2023-05-29T13:12:21;31.21;30.27
80134;SHT30;69443;51.442;10.564;2023-05-29T13:14:46;31.25;30.64
80134;SHT30;69443;51.442;10.564;2023-05-29T13:17:12;31.29;30.77
80134;SHT30;69443;51.442;10.564;2023-05-29T13:19:37;31.32;30.06
80134;SHT30;69443;51.442;10.564;2023-05-29T13:22:03;31.35;29.87
80134;SHT30;69443;51.442;10.564;2023-05-29T13:24:28;31.35;29.32
80134;SHT30;69443;51.442;10.564;2023-05-29T13:26:53;31.38;29.69
80134;SHT30;69443;51.442;10.564;2023-05-29T13:29:19;31.39;30.24
80134;SHT30;69443;51.442;10.564;2023-05-29T13:31:45;31.36;30.13
80134;SHT30;69443;51.442;10.564;2023-05-29T13:34:11;31.31;29.88
80134;SHT30;69443;51.442;10.564;2023-05-29T13:36:36;31.24;29.67
80134;SHT30;69443;51.442;10.564;2023-05-29T13:39:02;31.20;29.52
80134;SHT30;69443;51.442;10.564;2023-05-29T13:41:30;31.14;29.53
80134;SHT30;69443;51.442;10.564;2023-05-29T13:43:56;31.10;30.03
80134;SHT30;69443;51.442;10.564;2023-05-29T13:46:22;31.04;30.28
80134;SHT30;69443;51.442;10.564;2023-05-29T13:48:47;30.98;30.57
80134;SHT30;69443;51.442;10.564;2023-05-29T13:51:12;30.84;30.67
80134;SHT30;69443;51.442;10.564;2023-05-29T13:53:38;30.79;30.70
80134;SHT30;69443;51.442;10.564;2023-05-29T13:56:03;30.76;30.76
80134;SHT30;69443;51.442;10.564;2023-05-29T13:58:29;30.76;30.67
80134;SHT30;69443;51.442;10.564;2023-05-29T14:00:54;30.79;30.49
80134;SHT30;69443;51.442;10.564;2023-05-29T14:03:20;30.80;30.36
80134;SHT30;69443;51.442;10.564;2023-05-29T14:05:49;30.79;30.17
80134;SHT30;69443;51.442;10.564;2023-05-29T14:08:14;30.77;30.28
80134;SHT30;69443;51.442;10.564;2023-05-29T14:10:39;30.75;30.37
80134;SHT30;69443;51.442;10.564;2023-05-29T14:13:05;30.69;30.51
80134;SHT30;69443;51.442;10.564;2023-05-29T14:15:30;30.66;30.82
80134;SHT30;69443;51.442;10.564;2023-05-29T14:17:56;30.60;30.93
80134;SHT30;69443;51.442;10.564;2023-05-29T14:20:22;30.56;30.96
80134;SHT30;69443;51.442;10.564;2023-05-29T14:22:47;30.52;30.74
80134;SHT30;69443;51.442;10.564;2023-05-29T14:25:13;30.43;30.41
80134;SHT30;69443;51.442;10.564;2023-05-29T14:27:38;30.39;30.70
80134;SHT30;69443;51.442;10.564;2023-05-29T14:30:04;30.32;30.32
80134;SHT30;69443;51.442;10.564;2023-05-29T14:32:30;30.27;30.74
80134;SHT30;69443;51.442;10.564;2023-05-29T14:34:55;30.25;30.43
80134;SHT30;69443;51.442;10.564;2023-05-29T14:37:22;30.20;30.41
80134;SHT30;69443;51.442;10.564;2023-05-29T14:39:48;30.13;30.26
80134;SHT30;69443;51.442;10.564;2023-05-29T14:42:13;30.05;30.32
80134;SHT30;69443;51.442;10.564;2023-05-29T14:44:40;30.03;30.62
80134;SHT30;69443;51.442;10.564;2023-05-29T14:47:06;29.93;30.61
80134;SHT30;69443;51.442;10.564;2023-05-29T14:49:31;29.84;30.97
80134;SHT30;69443;51.442;10.564;2023-05-29T14:51:58;29.77;31.15
80134;SHT30;69443;51.442;10.564;2023-05-29T14:54:24;29.63;31.39
80134;SHT30;69443;51.442;10.564;2023-05-29T14:56:49;29.52;31.55
80134;SHT30;69443;51.442;10.564;2023-05-29T14:59:15;29.48;31.70
80134;SHT30;69443;51.442;10.564;2023-05-29T15:01:40;29.41;31.84
80134;SHT30;69443;51.442;10.564;2023-05-29T15:04:06;29.36;31.92
80134;SHT30;69443;51.442;10.564;2023-05-29T15:06:31;29.31;31.69
80134;SHT30;69443;51.442;10.564;2023-05-29T15:08:58;29.22;31.14
80134;SHT30;69443;51.442;10.564;2023-05-29T15:11:29;29.18;31.43
80134;SHT30;69443;51.442;10.564;2023-05-29T15:13:55;29.11;31.43
80134;SHT30;69443;51.442;10.564;2023-05-29T15:16:20;29.06;31.96
80134;SHT30;69443;51.442;10.564;2023-05-29T15:18:46;29.01;32.12
80134;SHT30;69443;51.442;10.564;2023-05-29T15:21:11;29.00;32.16
80134;SHT30;69443;51.442;10.564;2023-05-29T15:23:36;28.90;32.15
80134;SHT30;69443;51.442;10.564;2023-05-29T15:26:04;28.82;32.08
80134;SHT30;69443;51.442;10.564;2023-05-29T15:28:30;28.79;32.18
80134;SHT30;69443;51.442;10.564;2023-05-29T15:30:56;28.72;31.53
80134;SHT30;69443;51.442;10.564;2023-05-29T15:33:22;28.69;32.18
80134;SHT30;69443;51.442;10.564;2023-05-29T15:35:47;28.70;32.28
80134;SHT30;69443;51.442;10.564;2023-05-29T15:38:13;28.70;32.18
80134;SHT30;69443;51.442;10.564;2023-05-29T15:40:39;28.66;31.70
80134;SHT30;69443;51.442;10.564;2023-05-29T15:43:05;28.57;31.91
80134;SHT30;69443;51.442;10.564;2023-05-29T15:45:30;28.55;31.99
80134;SHT30;69443;51.442;10.564;2023-05-29T15:47:56;28.44;32.02
80134;SHT30;69443;51.442;10.564;2023-05-29T15:50:21;28.41;32.57
80134;SHT30;69443;51.442;10.564;2023-05-29T15:52:46;28.38;32.35
80134;SHT30;69443;51.442;10.564;2023-05-29T15:55:15;28.32;32.28
80134;SHT30;69443;51.442;10.564;2023-05-29T15:57:41;28.25;32.52